This is the latest recevied weather packets stored in our database for station/object HB9BTL-13. If no packets are shown the sender has not sent any weather packets the latest 10 day(s).
| Time | Temp. | Humidity | Pressure | Rain* | Wind** | Luminosity | Snow |
|---|---|---|---|---|---|---|---|
| 1777705693 | 13.89° C | 66% | 1023.8 hPa | - | - | - | - |
| 1777704788 | 13.89° C | 68% | 1023.9 hPa | - | - | - | - |
| 1777703882 | 13.33° C | 69% | 1023.9 hPa | - | - | - | - |
| 1777702977 | 12.78° C | 70% | 1023.9 hPa | - | - | - | - |
| 1777702071 | 12.78° C | 69% | 1024 hPa | - | - | - | - |
| 1777701166 | 11.67° C | 74% | 1024 hPa | - | - | - | - |
| 1777700261 | 11.67° C | 75% | 1024 hPa | - | - | - | - |
| 1777699355 | 11.67° C | 78% | 1023.9 hPa | - | - | - | - |
| 1777698450 | 11.11° C | 78% | 1023.9 hPa | - | - | - | - |
| 1777697544 | 11.11° C | 78% | 1023.8 hPa | - | - | - | - |
| 1777696639 | 11.11° C | 78% | 1023.7 hPa | - | - | - | - |
| 1777695734 | 10.56° C | 78% | 1023.7 hPa | - | - | - | - |
| 1777694828 | 11.11° C | 74% | 1023.7 hPa | - | - | - | - |
| 1777693923 | 11.67° C | 72% | 1023.7 hPa | - | - | - | - |
| 1777693018 | 10.56° C | 78% | 1023.7 hPa | - | - | - | - |
| 1777692112 | 11.11° C | 76% | 1023.7 hPa | - | - | - | - |
| 1777691207 | 11.67° C | 72% | 1023.7 hPa | - | - | - | - |
| 1777690301 | 11.11° C | 74% | 1023.6 hPa | - | - | - | - |
| 1777689396 | 11.67° C | 74% | 1023.6 hPa | - | - | - | - |
| 1777688491 | 12.22° C | 71% | 1023.6 hPa | - | - | - | - |
| 1777687585 | 11.67° C | 71% | 1023.6 hPa | - | - | - | - |
| 1777686680 | 11.67° C | 69% | 1023.6 hPa | - | - | - | - |
| 1777685775 | 11.67° C | 72% | 1023.6 hPa | - | - | - | - |
| 1777684869 | 12.22° C | 69% | 1023.6 hPa | - | - | - | - |
| 1777683963 | 12.78° C | 65% | 1023.4 hPa | - | - | - | - |
* Rain since midnight (hover to see other rain measurements)
** Current wind speed in m/s (hover to see current wind gust speed)